Time;durP1;ratioP1;P1;durP2;ratioP2;P2;SDS_P1;SDS_P2;PMS_P1;PMS_P2;Temp;Humidity;BMP_temperature;BMP_pressure;BME280_temperature;BME280_humidity;BME280_pressure;Samples;Min_cycle;Max_cycle;Signal;HPM_P1;HPM_P2
2023/04/14 00:01:17;;;;;;;11.63;2.63;;;6.40;99.90;;;;;;5072758;28;20044;-69
2023/04/14 00:03:43;;;;;;;9.38;2.45;;;6.40;99.90;;;;;;5072757;28;20051;-69
2023/04/14 00:06:09;;;;;;;9.23;2.22;;;6.40;99.90;;;;;;5072994;28;20098;-69
2023/04/14 00:08:35;;;;;;;10.80;2.83;;;6.30;99.90;;;;;;5072659;28;20516;-69
2023/04/14 00:11:00;;;;;;;10.55;2.78;;;6.40;99.90;;;;;;5072553;28;20123;-70
2023/04/14 00:13:26;;;;;;;9.70;2.60;;;6.30;99.90;;;;;;5072861;28;20036;-70
2023/04/14 00:15:52;;;;;;;8.98;2.17;;;6.20;99.90;;;;;;5072520;28;20047;-70
2023/04/14 00:18:17;;;;;;;10.20;2.55;;;6.30;99.90;;;;;;5072420;28;20083;-70
2023/04/14 00:20:43;;;;;;;10.50;2.72;;;6.20;99.90;;;;;;5071591;28;20028;-70
2023/04/14 00:23:08;;;;;;;8.50;2.80;;;6.10;99.90;;;;;;5072377;28;20032;-70
2023/04/14 00:25:34;;;;;;;9.55;2.65;;;6.10;99.90;;;;;;5072600;28;20043;-70
2023/04/14 00:28:00;;;;;;;9.63;2.90;;;6.10;99.90;;;;;;5072326;28;20043;-70
2023/04/14 00:30:25;;;;;;;9.88;2.78;;;6.00;99.90;;;;;;5072184;28;20048;-70
2023/04/14 00:32:51;;;;;;;8.95;2.58;;;6.00;99.90;;;;;;5072485;28;20047;-70
2023/04/14 00:35:17;;;;;;;7.85;2.83;;;6.00;99.90;;;;;;5072200;28;20426;-70
2023/04/14 00:37:42;;;;;;;8.60;2.53;;;6.00;99.90;;;;;;5072416;28;20036;-70
2023/04/14 00:40:09;;;;;;;6.82;2.30;;;6.00;99.90;;;;;;5072048;28;20408;-70
2023/04/14 00:42:45;;;;;;;7.78;2.20;;;6.00;99.90;;;;;;5072135;28;20086;-70
2023/04/14 00:45:11;;;;;;;9.38;2.25;;;6.00;99.90;;;;;;5072132;28;20072;-70
2023/04/14 00:47:40;;;;;;;10.25;2.35;;;6.00;99.90;;;;;;5072332;28;20441;-69
2023/04/14 00:50:10;;;;;;;11.00;2.17;;;6.00;99.90;;;;;;5072047;28;20496;-69
2023/04/14 00:52:37;;;;;;;11.60;2.45;;;5.90;99.90;;;;;;5055291;28;20063;-70
2023/04/14 00:55:05;;;;;;;7.90;2.50;;;5.80;99.90;;;;;;5071975;28;20049;-70
2023/04/14 00:57:31;;;;;;;11.07;2.55;;;5.80;99.90;;;;;;5072096;28;20568;-70
2023/04/14 00:59:59;;;;;;;9.38;2.30;;;5.80;99.90;;;;;;5071849;28;20128;-70
2023/04/14 01:02:25;;;;;;;6.40;2.42;;;5.80;99.90;;;;;;5072085;28;20059;-70
2023/04/14 01:04:51;;;;;;;7.30;2.50;;;5.80;99.90;;;;;;5072137;28;20040;-70
2023/04/14 01:07:18;;;;;;;5.57;2.13;;;5.80;99.90;;;;;;5071867;28;20435;-70
2023/04/14 01:09:44;;;;;;;8.50;2.60;;;5.90;99.90;;;;;;5071827;28;20072;-70
2023/04/14 01:12:47;;;;;;;8.52;2.25;;;5.80;99.90;;;;;;5072061;28;20044;-70
2023/04/14 01:15:22;;;;;;;10.90;2.57;;;5.80;99.90;;;;;;5071784;28;20119;-70
2023/04/14 01:17:58;;;;;;;10.30;2.00;;;5.80;99.90;;;;;;5055265;28;20084;-70
2023/04/14 01:20:35;;;;;;;8.10;2.08;;;5.80;99.90;;;;;;5071652;28;20119;-70
2023/04/14 01:23:07;;;;;;;7.50;2.38;;;5.80;99.90;;;;;;5071678;28;20466;-70
2023/04/14 01:26:09;;;;;;;6.60;2.00;;;5.80;99.90;;;;;;5071638;28;20067;-70
2023/04/14 01:29:18;;;;;;;7.55;2.25;;;5.80;99.90;;;;;;5071621;28;20049;-70
2023/04/14 01:31:47;;;;;;;7.90;1.98;;;5.70;99.90;;;;;;5073900;28;20047;-70
2023/04/14 01:34:21;;;;;;;7.60;2.47;;;5.60;99.90;;;;;;5075594;28;20044;-70
2023/04/14 01:37:03;;;;;;;6.63;1.92;;;5.50;99.90;;;;;;5058828;28;20496;-70
2023/04/14 01:39:34;;;;;;;7.82;2.75;;;5.40;99.90;;;;;;5075553;28;20040;-70
2023/04/14 01:42:05;;;;;;;8.52;2.70;;;5.40;99.90;;;;;;5075404;28;20040;-70
2023/04/14 01:44:33;;;;;;;4.75;1.50;;;5.30;99.90;;;;;;5075441;28;20501;-70
2023/04/14 01:47:04;;;;;;;5.20;1.77;;;5.40;99.90;;;;;;5075327;28;20037;-70
2023/04/14 01:49:34;;;;;;;8.32;2.20;;;5.40;99.90;;;;;;5075337;28;20048;-70
2023/04/14 01:52:02;;;;;;;6.85;1.77;;;5.40;99.90;;;;;;5075458;28;20119;-70
2023/04/14 01:54:30;;;;;;;7.00;2.22;;;5.40;99.90;;;;;;5075225;28;20167;-70
2023/04/14 01:56:59;;;;;;;6.00;2.03;;;5.40;99.90;;;;;;5075306;28;20074;-70
2023/04/14 01:59:26;;;;;;;8.23;2.13;;;5.50;99.90;;;;;;5075027;28;20053;-70
2023/04/14 02:01:52;;;;;;;10.55;2.25;;;5.40;99.90;;;;;;5075010;28;20386;-70
2023/04/14 02:04:20;;;;;;;9.65;1.98;;;5.50;99.90;;;;;;5075038;28;20150;-70
2023/04/14 02:06:48;;;;;;;6.95;2.22;;;5.50;99.90;;;;;;5074953;28;20394;-69
2023/04/14 02:09:15;;;;;;;8.73;1.98;;;5.50;99.90;;;;;;5074954;28;20049;-69
2023/04/14 02:11:43;;;;;;;8.73;2.92;;;5.50;99.90;;;;;;5058468;28;20124;-70
2023/04/14 02:14:11;;;;;;;9.07;2.30;;;5.50;99.90;;;;;;5075102;28;20048;-70
2023/04/14 02:16:37;;;;;;;10.13;2.08;;;5.60;99.90;;;;;;5058139;28;20055;-70
2023/04/14 02:19:06;;;;;;;8.48;2.58;;;5.50;99.90;;;;;;5074718;28;20040;-70
2023/04/14 02:21:34;;;;;;;8.43;2.60;;;5.60;99.90;;;;;;5074682;28;20074;-70
2023/04/14 02:24:00;;;;;;;9.23;2.30;;;5.60;99.90;;;;;;5074680;28;20556;-70
2023/04/14 02:26:30;;;;;;;6.80;2.08;;;5.60;99.90;;;;;;5074952;28;20063;-70
2023/04/14 02:29:22;;;;;;;13.27;2.65;;;5.60;99.90;;;;;;5074560;28;20055;-69
2023/04/14 02:32:18;;;;;;;8.82;2.22;;;5.60;99.90;;;;;;5074512;28;20105;-70
2023/04/14 02:34:51;;;;;;;9.50;2.33;;;5.60;99.90;;;;;;5073630;28;20052;-70
2023/04/14 02:37:25;;;;;;;8.60;2.10;;;5.70;99.90;;;;;;5074523;28;20123;-70
2023/04/14 02:39:57;;;;;;;9.93;2.38;;;5.70;99.90;;;;;;5074349;28;20056;-70
2023/04/14 02:42:27;;;;;;;9.27;2.20;;;5.70;99.90;;;;;;5073708;28;20040;-70
2023/04/14 02:45:10;;;;;;;9.43;2.38;;;5.70;99.90;;;;;;5074575;28;20040;-70
2023/04/14 02:47:42;;;;;;;6.28;1.98;;;5.80;99.90;;;;;;5074296;28;20055;-70
2023/04/14 02:50:12;;;;;;;9.48;2.50;;;5.80;99.90;;;;;;5074479;28;20511;-70
2023/04/14 02:52:39;;;;;;;8.65;2.50;;;5.80;99.90;;;;;;5074182;28;20072;-70
2023/04/14 02:55:08;;;;;;;10.70;2.72;;;5.80;99.90;;;;;;5074078;28;20048;-70
2023/04/14 02:57:34;;;;;;;11.63;2.90;;;5.80;99.90;;;;;;5074107;28;20493;-70
2023/04/14 03:00:00;;;;;;;7.32;2.08;;;5.80;99.90;;;;;;5074010;28;20086;-70
2023/04/14 03:02:27;;;;;;;8.60;2.45;;;5.80;99.90;;;;;;5073911;28;20095;-70
2023/04/14 03:04:53;;;;;;;10.35;2.38;;;5.80;99.90;;;;;;5073924;28;20114;-70
2023/04/14 03:07:20;;;;;;;7.53;1.98;;;5.80;99.90;;;;;;5073876;28;20076;-70
2023/04/14 03:09:49;;;;;;;8.70;2.53;;;5.80;99.90;;;;;;5074107;28;20056;-70
2023/04/14 03:12:16;;;;;;;8.82;2.67;;;5.70;99.90;;;;;;5073704;28;20447;-70
2023/04/14 03:14:43;;;;;;;6.30;2.30;;;5.70;99.90;;;;;;5073766;28;20040;-70
2023/04/14 03:17:10;;;;;;;7.05;2.70;;;5.70;99.90;;;;;;5073692;28;20037;-70
2023/04/14 03:19:39;;;;;;;6.90;2.40;;;5.70;99.90;;;;;;5073561;28;20044;-70
2023/04/14 03:22:07;;;;;;;11.50;2.30;;;5.70;99.90;;;;;;5073774;28;20067;-70
2023/04/14 03:24:33;;;;;;;11.93;2.40;;;5.70;99.90;;;;;;5073780;28;20041;-70
2023/04/14 03:27:13;;;;;;;7.43;2.15;;;5.80;99.90;;;;;;5073480;28;20401;-70
2023/04/14 03:29:43;;;;;;;9.10;2.00;;;5.70;99.90;;;;;;5073471;28;20090;-70
2023/04/14 03:32:10;;;;;;;9.55;2.72;;;5.70;99.90;;;;;;5074267;28;20513;-70
2023/04/14 03:34:40;;;;;;;7.55;2.58;;;5.70;99.90;;;;;;5073328;28;20174;-70
2023/04/14 03:37:07;;;;;;;9.25;2.17;;;5.80;99.90;;;;;;5073604;28;20045;-70
2023/04/14 03:39:34;;;;;;;8.30;2.28;;;5.70;99.90;;;;;;5056445;28;20071;-70
2023/04/14 03:42:00;;;;;;;6.30;1.90;;;5.80;99.90;;;;;;5073110;28;20028;-70
2023/04/14 03:44:31;;;;;;;11.38;2.58;;;5.70;99.90;;;;;;5073098;28;20044;-70
2023/04/14 03:47:01;;;;;;;6.68;1.90;;;5.70;99.90;;;;;;5073119;28;20032;-70
2023/04/14 03:49:27;;;;;;;10.38;2.40;;;5.80;99.90;;;;;;5073006;28;20048;-70
2023/04/14 03:51:55;;;;;;;8.02;1.95;;;5.80;99.90;;;;;;5072849;28;20432;-70
2023/04/14 03:54:24;;;;;;;5.68;2.05;;;5.80;99.90;;;;;;5072911;28;20056;-70
2023/04/14 03:56:54;;;;;;;7.80;2.28;;;5.90;99.90;;;;;;5073033;28;20098;-70
2023/04/14 03:59:23;;;;;;;9.55;2.45;;;5.90;99.90;;;;;;5072905;28;20044;-70
2023/04/14 04:01:49;;;;;;;10.18;2.38;;;5.90;99.90;;;;;;5056374;28;20493;-70
2023/04/14 04:04:16;;;;;;;8.88;1.88;;;5.90;99.90;;;;;;5073040;28;20040;-70
2023/04/14 04:06:42;;;;;;;12.93;2.67;;;5.90;99.90;;;;;;5072732;28;20044;-70
2023/04/14 04:09:11;;;;;;;8.45;2.45;;;5.90;99.90;;;;;;5072668;28;20043;-70
2023/04/14 04:11:38;;;;;;;9.48;2.35;;;5.90;99.90;;;;;;5072576;28;20051;-70
2023/04/14 04:14:05;;;;;;;6.97;2.17;;;5.90;99.90;;;;;;5072833;28;20102;-70
2023/04/14 04:16:34;;;;;;;10.60;2.67;;;5.90;99.90;;;;;;5072504;28;20052;-70
2023/04/14 04:19:06;;;;;;;6.38;2.10;;;5.90;99.90;;;;;;5072449;28;20413;-70
2023/04/14 04:21:35;;;;;;;9.25;2.35;;;5.90;99.90;;;;;;5072727;28;20076;-70
2023/04/14 04:24:03;;;;;;;7.35;2.53;;;5.90;99.90;;;;;;5072402;28;20036;-70
2023/04/14 04:26:29;;;;;;;7.65;2.40;;;5.90;99.90;;;;;;5072695;28;20040;-70
2023/04/14 04:28:59;;;;;;;6.68;2.30;;;5.80;99.90;;;;;;5072369;28;20055;-70
2023/04/14 04:31:29;;;;;;;7.50;2.55;;;5.80;99.90;;;;;;5072271;28;20521;-70
2023/04/14 04:33:56;;;;;;;8.85;2.53;;;5.80;99.90;;;;;;5072273;28;20063;-70
2023/04/14 04:36:24;;;;;;;7.18;2.20;;;5.80;99.90;;;;;;5072173;28;20055;-69
2023/04/14 04:38:50;;;;;;;8.20;2.22;;;5.80;99.90;;;;;;5073868;28;20048;-69
2023/04/14 04:41:24;;;;;;;6.72;2.38;;;5.70;99.90;;;;;;5072096;28;20047;-69
2023/04/14 04:43:50;;;;;;;5.65;2.40;;;5.70;99.90;;;;;;5072084;28;20032;-69
2023/04/14 04:46:21;;;;;;;6.75;2.35;;;5.70;99.90;;;;;;5072042;28;20178;-70
2023/04/14 04:48:52;;;;;;;7.85;2.60;;;5.70;99.90;;;;;;5072277;28;20044;-70
2023/04/14 04:51:17;;;;;;;9.63;2.70;;;5.60;99.90;;;;;;5071957;28;20040;-70
2023/04/14 04:53:43;;;;;;;7.30;2.40;;;5.60;99.90;;;;;;5071957;28;20060;-70
2023/04/14 04:56:09;;;;;;;8.32;2.53;;;5.60;99.90;;;;;;5071916;28;20094;-70
2023/04/14 04:58:34;;;;;;;7.25;2.75;;;5.60;99.90;;;;;;5071754;28;20040;-70
2023/04/14 05:01:07;;;;;;;9.68;2.72;;;5.60;99.90;;;;;;5072039;28;20098;-70
2023/04/14 05:03:33;;;;;;;6.90;2.40;;;5.60;99.90;;;;;;5072179;28;20041;-69
2023/04/14 05:05:58;;;;;;;7.00;2.72;;;5.60;99.90;;;;;;5071412;28;20090;-69
2023/04/14 05:08:24;;;;;;;8.98;2.38;;;5.70;99.90;;;;;;5072050;28;20097;-69
2023/04/14 05:10:49;;;;;;;4.93;2.40;;;5.70;99.90;;;;;;5071917;28;20064;-69
2023/04/14 05:13:15;;;;;;;7.20;2.80;;;5.70;99.90;;;;;;5071764;28;20582;-69
2023/04/14 05:15:41;;;;;;;8.73;2.85;;;5.70;99.90;;;;;;5055068;28;20044;-69
2023/04/14 05:18:06;;;;;;;7.68;2.60;;;5.70;99.90;;;;;;5071894;28;20037;-69
2023/04/14 05:20:32;;;;;;;9.43;2.47;;;5.80;99.90;;;;;;5071629;28;20066;-70
2023/04/14 05:22:58;;;;;;;8.30;2.55;;;5.80;99.90;;;;;;5071730;28;20047;-70
2023/04/14 05:25:23;;;;;;;5.28;2.28;;;5.90;99.90;;;;;;5071694;28;20128;-70
2023/04/14 05:27:49;;;;;;;8.40;2.58;;;5.90;99.90;;;;;;5072944;28;20032;-69
2023/04/14 05:30:15;;;;;;;9.07;2.65;;;6.00;99.90;;;;;;5071631;28;20076;-70
2023/04/14 05:32:40;;;;;;;9.77;3.42;;;6.00;99.90;;;;;;5071571;28;20044;-69
2023/04/14 05:35:07;;;;;;;13.23;2.92;;;6.10;99.90;;;;;;5071551;28;20122;-69
2023/04/14 05:37:33;;;;;;;10.20;3.40;;;6.10;99.90;;;;;;5071825;28;20044;-69
2023/04/14 05:39:58;;;;;;;9.27;3.13;;;6.10;99.90;;;;;;5071873;28;20048;-69
2023/04/14 05:42:24;;;;;;;10.15;3.22;;;6.20;99.90;;;;;;5071467;28;20040;-69
2023/04/14 05:44:49;;;;;;;11.20;3.95;;;6.30;99.90;;;;;;5071912;28;20086;-69
2023/04/14 05:47:15;;;;;;;10.27;3.20;;;6.30;99.90;;;;;;5071767;28;20511;-69
2023/04/14 05:49:40;;;;;;;11.68;3.13;;;6.40;99.90;;;;;;5071511;28;20040;-69
2023/04/14 05:52:06;;;;;;;8.80;2.63;;;6.40;99.90;;;;;;5071661;28;20132;-69
2023/04/14 05:54:31;;;;;;;9.80;2.83;;;6.50;99.90;;;;;;5071545;28;20044;-69
2023/04/14 05:56:57;;;;;;;7.53;2.42;;;6.50;99.90;;;;;;5071095;28;20123;-69
2023/04/14 05:59:23;;;;;;;8.10;2.45;;;6.60;99.90;;;;;;5071471;28;20040;-69
2023/04/14 06:01:49;;;;;;;8.13;2.60;;;6.70;99.90;;;;;;5071510;28;20527;-69
2023/04/14 06:04:14;;;;;;;8.23;2.28;;;6.70;99.90;;;;;;5071341;28;20044;-69
2023/04/14 06:06:40;;;;;;;7.10;1.90;;;6.80;99.90;;;;;;5071518;28;20037;-69
2023/04/14 06:09:06;;;;;;;10.57;2.20;;;6.90;99.90;;;;;;5071271;28;20059;-69
2023/04/14 06:11:31;;;;;;;12.15;2.40;;;6.90;99.90;;;;;;5071440;28;20041;-69
2023/04/14 06:13:57;;;;;;;6.30;1.95;;;7.00;99.90;;;;;;5071324;28;20408;-69
2023/04/14 06:16:23;;;;;;;9.35;2.20;;;7.00;99.90;;;;;;5071862;28;20062;-69
2023/04/14 06:18:49;;;;;;;10.52;2.33;;;7.10;99.90;;;;;;5073453;28;20496;-69
2023/04/14 06:21:14;;;;;;;6.18;2.20;;;7.10;99.90;;;;;;5076537;28;20044;-69
2023/04/14 06:23:40;;;;;;;7.10;1.90;;;7.10;99.90;;;;;;5074878;28;20028;-69
2023/04/14 06:26:06;;;;;;;13.27;2.20;;;7.10;99.90;;;;;;5074960;28;20048;-69
2023/04/14 06:28:31;;;;;;;11.07;2.60;;;7.20;99.90;;;;;;5074910;28;20041;-67
2023/04/14 06:30:57;;;;;;;8.35;2.38;;;7.20;99.90;;;;;;5074666;28;20074;-67
2023/04/14 06:33:22;;;;;;;7.60;2.10;;;7.20;99.90;;;;;;5074603;28;20052;-67
2023/04/14 06:35:48;;;;;;;9.13;2.72;;;7.20;99.90;;;;;;5074526;28;20086;-67
2023/04/14 06:38:14;;;;;;;9.93;2.97;;;7.20;99.90;;;;;;5074431;28;20040;-67
2023/04/14 06:40:40;;;;;;;9.48;2.30;;;7.20;99.90;;;;;;5074362;28;20036;-66
2023/04/14 06:43:09;;;;;;;8.52;2.30;;;7.20;99.90;;;;;;5074441;28;20105;-66
2023/04/14 06:45:35;;;;;;;6.57;2.50;;;7.20;99.90;;;;;;5074345;28;20083;-67
2023/04/14 06:48:01;;;;;;;7.43;2.25;;;7.20;99.90;;;;;;5074303;28;20072;-66
2023/04/14 06:50:26;;;;;;;11.20;2.70;;;7.30;99.90;;;;;;5074469;28;20052;-67
2023/04/14 06:52:52;;;;;;;8.82;2.50;;;7.30;99.90;;;;;;5074206;28;20041;-69
2023/04/14 06:55:18;;;;;;;12.30;2.67;;;7.30;99.90;;;;;;5074120;28;20032;-67
2023/04/14 06:57:43;;;;;;;9.23;2.50;;;7.40;99.90;;;;;;5074213;28;20040;-67
2023/04/14 07:00:10;;;;;;;13.98;3.40;;;7.50;99.90;;;;;;5074085;28;20048;-67
2023/04/14 07:02:35;;;;;;;8.20;2.42;;;7.50;99.90;;;;;;5073965;28;20071;-67
2023/04/14 07:05:01;;;;;;;9.90;2.35;;;7.60;99.90;;;;;;5075254;28;20071;-67
2023/04/14 07:07:27;;;;;;;11.52;2.70;;;7.70;99.90;;;;;;5073965;28;20033;-66
2023/04/14 07:09:52;;;;;;;7.63;2.30;;;7.80;99.90;;;;;;5074160;28;20048;-67
2023/04/14 07:12:18;;;;;;;7.88;2.15;;;7.80;99.90;;;;;;5073830;28;20052;-67
2023/04/14 07:14:50;;;;;;;5.80;2.13;;;7.90;99.90;;;;;;5073795;28;20047;-67
2023/04/14 07:17:17;;;;;;;11.93;3.10;;;7.90;99.90;;;;;;5074111;28;20127;-67
2023/04/14 07:19:43;;;;;;;10.55;2.92;;;8.00;99.90;;;;;;5073779;28;20309;-67
2023/04/14 07:22:09;;;;;;;7.53;2.13;;;8.10;99.90;;;;;;5073610;28;20460;-67
2023/04/14 07:24:34;;;;;;;9.13;2.50;;;8.10;99.90;;;;;;5073859;28;20115;-66
2023/04/14 07:27:00;;;;;;;6.65;2.22;;;8.20;99.90;;;;;;5056853;28;20036;-67
2023/04/14 07:29:27;;;;;;;8.27;1.90;;;8.30;99.90;;;;;;5073143;28;20093;-67
2023/04/14 07:31:53;;;;;;;9.55;2.75;;;8.40;99.90;;;;;;5073378;28;20083;-67
2023/04/14 07:34:19;;;;;;;10.93;2.30;;;8.40;99.90;;;;;;5073446;28;20071;-67
2023/04/14 07:36:45;;;;;;;11.20;1.88;;;8.50;99.90;;;;;;5073636;28;20044;-67
2023/04/14 07:39:11;;;;;;;11.05;3.55;;;8.50;99.90;;;;;;5073235;28;20499;-67
2023/04/14 07:41:36;;;;;;;8.13;2.80;;;8.60;99.90;;;;;;5073252;28;20047;-67
2023/04/14 07:44:02;;;;;;;9.75;2.38;;;8.60;99.90;;;;;;5073213;28;20041;-67
2023/04/14 07:46:28;;;;;;;9.95;2.95;;;8.80;99.90;;;;;;5073242;28;20067;-67
2023/04/14 07:48:53;;;;;;;9.55;2.33;;;8.80;99.90;;;;;;5073110;28;20071;-67
2023/04/14 07:51:19;;;;;;;9.68;2.55;;;9.00;99.90;;;;;;5073030;28;20047;-67
2023/04/14 07:53:45;;;;;;;14.68;3.20;;;9.10;99.90;;;;;;5073054;28;20044;-67
2023/04/14 07:56:11;;;;;;;6.45;2.05;;;9.30;99.90;;;;;;5073248;28;20047;-67
2023/04/14 07:58:37;;;;;;;8.35;2.00;;;9.40;99.90;;;;;;5072749;28;20505;-67
2023/04/14 08:01:04;;;;;;;10.02;2.33;;;9.60;99.90;;;;;;5073010;28;20040;-67
2023/04/14 08:03:29;;;;;;;11.85;2.20;;;9.80;99.90;;;;;;5073108;28;20044;-67
2023/04/14 08:05:56;;;;;;;11.18;2.88;;;9.90;99.90;;;;;;5072783;28;20047;-67
2023/04/14 08:08:23;;;;;;;12.00;2.20;;;10.10;99.90;;;;;;5072767;28;20041;-67
2023/04/14 08:10:48;;;;;;;11.40;2.17;;;10.30;99.90;;;;;;5072687;28;20044;-67
2023/04/14 08:13:14;;;;;;;10.25;2.55;;;10.40;99.90;;;;;;5073019;28;20033;-67
2023/04/14 08:15:39;;;;;;;10.88;2.90;;;10.50;99.90;;;;;;5072627;28;20535;-67
2023/04/14 08:18:05;;;;;;;9.45;2.20;;;10.70;99.90;;;;;;5072809;28;20040;-67
2023/04/14 08:20:31;;;;;;;11.18;2.85;;;10.80;99.90;;;;;;5072342;28;20431;-70
2023/04/14 08:22:57;;;;;;;8.48;2.42;;;10.90;99.90;;;;;;5072374;28;20127;-68
2023/04/14 08:25:23;;;;;;;9.25;2.58;;;11.10;99.90;;;;;;5072490;28;20071;-67
2023/04/14 08:27:48;;;;;;;8.85;2.67;;;11.20;99.90;;;;;;5072380;28;20583;-66
2023/04/14 08:30:14;;;;;;;7.05;2.38;;;11.40;99.90;;;;;;5072272;28;20131;-67
2023/04/14 08:32:40;;;;;;;12.18;2.22;;;11.60;99.90;;;;;;5072280;28;20121;-67
2023/04/14 08:35:05;;;;;;;11.20;2.60;;;11.80;99.90;;;;;;5072295;28;20052;-66
2023/04/14 08:37:31;;;;;;;6.00;1.80;;;11.90;99.90;;;;;;5072508;28;20052;-66
2023/04/14 08:39:57;;;;;;;10.70;2.42;;;12.00;99.20;;;;;;5071826;28;20048;-67
2023/04/14 08:42:24;;;;;;;10.57;2.67;;;12.20;98.70;;;;;;5071738;28;20036;-67
2023/04/14 08:44:51;;;;;;;9.80;2.30;;;12.40;98.50;;;;;;5072293;28;20116;-67
2023/04/14 08:47:21;;;;;;;9.63;2.40;;;12.50;97.50;;;;;;5073210;28;20098;-67
2023/04/14 08:49:58;;;;;;;12.35;2.47;;;12.50;96.50;;;;;;5072067;28;20044;-67
2023/04/14 08:52:27;;;;;;;8.65;2.35;;;12.70;96.80;;;;;;5072296;28;20052;-67
2023/04/14 08:54:55;;;;;;;10.38;2.50;;;12.90;96.40;;;;;;5072020;28;20041;-66
2023/04/14 08:57:23;;;;;;;9.48;2.17;;;13.10;95.40;;;;;;5073229;28;20119;-66
2023/04/14 08:59:50;;;;;;;7.82;2.08;;;13.30;95.10;;;;;;5071876;28;20059;-66
2023/04/14 09:02:20;;;;;;;9.38;2.20;;;13.50;94.60;;;;;;5072196;28;20135;-66
2023/04/14 09:04:46;;;;;;;14.80;2.67;;;13.70;93.40;;;;;;5071923;28;20051;-66
2023/04/14 09:07:13;;;;;;;7.13;1.80;;;13.80;92.90;;;;;;5073389;28;20037;-66
2023/04/14 09:09:39;;;;;;;11.68;3.05;;;14.00;92.00;;;;;;5071962;28;20090;-66
2023/04/14 09:12:07;;;;;;;11.02;2.13;;;13.80;91.20;;;;;;5071680;28;20048;-67
2023/04/14 09:14:32;;;;;;;10.50;2.25;;;13.70;91.30;;;;;;5071847;28;20086;-67
2023/04/14 09:16:58;;;;;;;9.45;1.90;;;13.80;91.20;;;;;;5071845;28;20049;-66
2023/04/14 09:19:25;;;;;;;9.48;2.03;;;14.00;90.40;;;;;;5055312;28;20052;-68
2023/04/14 09:21:51;;;;;;;6.00;1.80;;;14.10;89.70;;;;;;5055248;28;20033;-67
2023/04/14 09:24:22;;;;;;;6.70;1.80;;;14.30;88.10;;;;;;5071914;28;20119;-67
2023/04/14 09:26:50;;;;;;;11.60;2.58;;;14.50;85.50;;;;;;5071927;28;20040;-70
2023/04/14 09:29:17;;;;;;;9.88;1.88;;;14.70;84.80;;;;;;5071696;28;20493;-70
2023/04/14 09:31:44;;;;;;;7.07;1.80;;;15.00;83.60;;;;;;5071654;28;20093;-70
2023/04/14 09:34:19;;;;;;;7.63;2.08;;;15.20;83.20;;;;;;5071849;28;20174;-69
2023/04/14 09:37:03;;;;;;;8.77;1.85;;;15.50;82.10;;;;;;5071587;28;20041;-69
2023/04/14 09:39:30;;;;;;;7.00;1.80;;;15.80;80.20;;;;;;5071712;28;20041;-69
2023/04/14 09:41:55;;;;;;;10.00;2.45;;;15.90;80.00;;;;;;5071760;28;20040;-69
2023/04/14 09:44:21;;;;;;;9.45;2.35;;;16.10;80.40;;;;;;5071850;28;20044;-69
2023/04/14 09:46:57;;;;;;;14.73;2.50;;;16.30;79.50;;;;;;5071645;28;20122;-69
2023/04/14 09:49:24;;;;;;;5.78;2.38;;;16.50;74.90;;;;;;5055179;28;20405;-69
2023/04/14 09:51:51;;;;;;;10.82;2.35;;;16.50;75.20;;;;;;5072437;28;20124;-69
2023/04/14 09:54:24;;;;;;;10.25;2.13;;;16.40;74.00;;;;;;5075610;28;20101;-69
2023/04/14 09:56:51;;;;;;;9.23;2.08;;;16.40;75.30;;;;;;5075233;28;20033;-69
2023/04/14 09:59:32;;;;;;;9.10;2.17;;;16.60;75.00;;;;;;5075274;28;20044;-69
2023/04/14 10:02:02;;;;;;;8.25;2.50;;;16.60;72.70;;;;;;5058422;28;20501;-69
2023/04/14 10:04:27;;;;;;;8.70;2.30;;;16.50;75.00;;;;;;5075105;28;20504;-69
2023/04/14 10:06:59;;;;;;;9.52;2.28;;;16.50;72.70;;;;;;5075106;28;20047;-69
2023/04/14 10:09:27;;;;;;;6.35;2.00;;;16.60;71.20;;;;;;5075349;28;20063;-69
2023/04/14 10:12:09;;;;;;;9.95;1.88;;;16.70;71.50;;;;;;5074926;28;20043;-69
2023/04/14 10:14:42;;;;;;;12.60;2.35;;;16.60;70.70;;;;;;5074887;28;20125;-69
2023/04/14 10:17:09;;;;;;;10.93;2.03;;;16.60;71.50;;;;;;5075150;28;20040;-69
2023/04/14 10:19:36;;;;;;;10.38;2.33;;;16.90;71.30;;;;;;5074728;28;20117;-69
2023/04/14 10:22:03;;;;;;;8.18;1.90;;;17.10;70.90;;;;;;5074698;28;20044;-69
2023/04/14 10:24:30;;;;;;;14.73;2.38;;;16.80;69.30;;;;;;5074721;28;20411;-69
2023/04/14 10:26:57;;;;;;;7.60;2.15;;;16.40;69.30;;;;;;5074806;28;20041;-69
2023/04/14 10:29:23;;;;;;;9.80;2.30;;;16.50;69.60;;;;;;5074746;28;20072;-69
2023/04/14 10:32:00;;;;;;;9.05;2.17;;;16.40;69.00;;;;;;5074832;28;20071;-69
2023/04/14 10:34:27;;;;;;;12.38;1.83;;;16.40;69.30;;;;;;5074627;28;20051;-69
2023/04/14 10:36:53;;;;;;;10.68;2.35;;;16.50;70.40;;;;;;5074560;28;20512;-69
2023/04/14 10:39:23;;;;;;;11.75;2.42;;;16.70;70.80;;;;;;5074462;28;20102;-69
2023/04/14 10:41:51;;;;;;;8.73;1.90;;;17.10;68.10;;;;;;5074655;28;20037;-69
2023/04/14 10:44:25;;;;;;;10.30;2.60;;;17.40;68.40;;;;;;5074474;28;20045;-69
2023/04/14 10:46:52;;;;;;;10.95;2.47;;;17.40;65.30;;;;;;5074370;28;20040;-69
2023/04/14 10:49:21;;;;;;;9.95;2.60;;;17.30;65.40;;;;;;5075636;28;20036;-69
2023/04/14 10:51:48;;;;;;;7.00;2.13;;;17.30;65.70;;;;;;5074230;28;20040;-69
2023/04/14 10:54:20;;;;;;;9.10;2.30;;;17.60;64.50;;;;;;5074719;28;20066;-69
2023/04/14 10:57:09;;;;;;;6.97;1.90;;;18.00;63.50;;;;;;5074178;28;20501;-69
2023/04/14 10:59:34;;;;;;;9.05;1.90;;;17.80;62.00;;;;;;5074178;28;20044;-69
2023/04/14 11:02:00;;;;;;;9.18;1.90;;;17.50;63.50;;;;;;5074003;28;20191;-69
2023/04/14 11:04:26;;;;;;;8.70;2.03;;;17.30;64.30;;;;;;5057017;28;20025;-68
2023/04/14 11:06:53;;;;;;;5.80;1.52;;;17.40;64.10;;;;;;5074328;28;20558;-69
2023/04/14 11:09:29;;;;;;;8.57;2.10;;;17.40;62.70;;;;;;5074332;28;20048;-69
2023/04/14 11:11:56;;;;;;;7.45;2.08;;;17.30;63.10;;;;;;5074037;28;20075;-69
2023/04/14 11:14:26;;;;;;;11.15;2.00;;;17.30;63.30;;;;;;5073936;28;20041;-69
2023/04/14 11:16:57;;;;;;;12.05;2.40;;;17.10;62.60;;;;;;5073820;28;20047;-69
2023/04/14 11:19:24;;;;;;;9.65;2.00;;;17.40;63.80;;;;;;5073903;28;20086;-69
2023/04/14 11:21:52;;;;;;;10.23;2.30;;;17.70;61.50;;;;;;5073724;28;20120;-69
2023/04/14 11:24:20;;;;;;;8.98;1.80;;;17.90;61.70;;;;;;5073640;28;20127;-68
2023/04/14 11:26:46;;;;;;;9.75;1.90;;;17.70;61.60;;;;;;5073707;28;20052;-69
2023/04/14 11:29:12;;;;;;;6.40;1.48;;;17.60;59.30;;;;;;5073577;28;20123;-68
2023/04/14 11:31:38;;;;;;;8.55;1.98;;;17.60;59.60;;;;;;5073372;28;20123;-69
2023/04/14 11:34:07;;;;;;;8.48;1.80;;;17.60;62.20;;;;;;5073390;28;20048;-69
2023/04/14 11:36:38;;;;;;;9.35;1.83;;;17.60;60.50;;;;;;5073630;28;20413;-68
2023/04/14 11:39:04;;;;;;;9.05;2.08;;;17.50;59.40;;;;;;5073552;28;20452;-69
2023/04/14 11:41:30;;;;;;;5.68;1.77;;;17.50;57.50;;;;;;5073195;28;20119;-69
2023/04/14 11:43:56;;;;;;;7.63;1.95;;;17.30;59.30;;;;;;5073204;28;20127;-68
2023/04/14 11:46:21;;;;;;;5.55;1.38;;;17.70;58.30;;;;;;5073191;28;20075;-68
2023/04/14 11:48:52;;;;;;;8.10;2.00;;;18.00;57.50;;;;;;5073173;28;20064;-69
2023/04/14 11:51:18;;;;;;;5.95;1.60;;;18.10;56.90;;;;;;5073034;28;20501;-69
2023/04/14 11:53:43;;;;;;;10.38;2.00;;;17.90;57.10;;;;;;5073016;28;20045;-69
2023/04/14 11:56:11;;;;;;;9.55;2.30;;;17.60;57.30;;;;;;5073057;28;20048;-68
2023/04/14 11:58:37;;;;;;;8.40;2.40;;;17.60;57.60;;;;;;5072947;28;20052;-68
2023/04/14 12:01:03;;;;;;;7.68;2.10;;;17.70;57.00;;;;;;5072871;28;20043;-69
2023/04/14 12:03:31;;;;;;;6.65;1.40;;;18.10;56.90;;;;;;5073124;28;20098;-69
2023/04/14 12:06:01;;;;;;;8.40;2.22;;;18.30;56.90;;;;;;5072860;28;20040;-69
2023/04/14 12:08:32;;;;;;;7.60;1.88;;;18.20;54.80;;;;;;5072738;28;20459;-68
2023/04/14 12:11:09;;;;;;;7.72;1.88;;;18.40;56.20;;;;;;5072687;28;20049;-69
2023/04/14 12:13:40;;;;;;;7.40;1.60;;;18.50;56.30;;;;;;5073031;28;20068;-69
2023/04/14 12:16:06;;;;;;;8.30;1.77;;;18.60;55.80;;;;;;5071710;28;20062;-69
2023/04/14 12:18:31;;;;;;;7.38;1.63;;;19.00;54.70;;;;;;5072580;28;20037;-69
2023/04/14 12:21:01;;;;;;;6.85;1.90;;;19.40;56.00;;;;;;5072396;28;20086;-69
2023/04/14 12:23:27;;;;;;;7.07;1.50;;;19.50;54.40;;;;;;5072590;28;20120;-69
2023/04/14 12:25:53;;;;;;;7.90;2.03;;;19.10;54.40;;;;;;5072424;28;20124;-68
2023/04/14 12:28:29;;;;;;;9.02;2.03;;;18.60;54.50;;;;;;5072404;28;20123;-68
2023/04/14 12:31:03;;;;;;;6.30;1.90;;;18.20;53.80;;;;;;5072256;28;20044;-69
2023/04/14 12:33:31;;;;;;;8.60;1.83;;;17.60;53.70;;;;;;5072284;28;20044;-68
2023/04/14 12:36:08;;;;;;;11.43;2.28;;;17.20;55.60;;;;;;5072280;28;20041;-68
2023/04/14 12:38:34;;;;;;;7.60;1.65;;;17.40;56.40;;;;;;5072218;28;20036;-68
2023/04/14 12:41:00;;;;;;;7.95;1.75;;;17.70;57.00;;;;;;5072117;28;20119;-68
2023/04/14 12:43:28;;;;;;;7.38;1.75;;;18.10;55.90;;;;;;5072225;28;20090;-68
2023/04/14 12:45:54;;;;;;;10.02;2.20;;;18.50;55.90;;;;;;5072087;28;20156;-69
2023/04/14 12:48:21;;;;;;;6.43;1.73;;;18.80;53.40;;;;;;5072414;28;20123;-69
2023/04/14 12:50:47;;;;;;;10.10;2.30;;;19.10;53.10;;;;;;5072054;28;20048;-69
2023/04/14 12:53:27;;;;;;;6.15;1.70;;;19.30;54.20;;;;;;5072074;28;20067;-69
2023/04/14 12:56:18;;;;;;;7.32;1.80;;;19.60;52.70;;;;;;5072013;28;20079;-69